Mount Ulla, North Carolina
Current Conditions -  °F | °C
As of 11:15 AM on Sunday 23 Nov 2014 (Local Time) from KRUQ Reporting Station
Moderate Rain Moderate Rain  
Wind Chill: 40°   Ceiling: Unl
Heat Index: 43°   Visibility: 5mi
Dew Point: 40°   Wind: 5mph
Humidity: 90%   Direction: 20°NNE
Pressure: 30.16"   Gusts: NA
Location:  35.66°N, 80.73°W
Report Text: KRUQ 231615Z AUTO 02004KT 5SM RA CLR 06/05 A3016 RMK AO2 P0002 T00600045
Loading
Personal Weather Stations






























Interactive Weather Map New forecast layout! Learn more

10-Day Weather Forecast

Advertisements
Track Severe Weather on mobile